Time;durP1;ratioP1;P1;durP2;ratioP2;P2;SDS_P1;SDS_P2;PMS_P1;PMS_P2;Temp;Humidity;BMP_temperature;BMP_pressure;BME280_temperature;BME280_humidity;BME280_pressure;Samples;Min_cycle;Max_cycle;Signal;HPM_P1;HPM_P2
2022/06/27 00:03:19;;;;;;;0.60;0.60;;;;;;;21.15;66.15;96468.03;10366451;28;20444;-21
2022/06/27 00:08:20;;;;;;;0.60;0.50;;;;;;;21.40;70.11;96467.63;10373972;28;20040;-20
2022/06/27 00:13:20;;;;;;;0.90;0.70;;;;;;;21.33;64.60;96473.72;10377410;28;20103;-22
2022/06/27 00:18:21;;;;;;;0.73;0.73;;;;;;;21.19;63.45;96503.63;10408084;28;20284;-22
2022/06/27 00:23:21;;;;;;;3.70;0.50;;;;;;;21.09;63.31;96486.78;10389701;28;20038;-21
2022/06/27 00:28:22;;;;;;;0.60;0.60;;;;;;;21.03;63.39;96491.97;10371058;28;20042;-21
2022/06/27 00:33:22;;;;;;;0.63;0.60;;;;;;;21.01;63.40;96495.38;10374214;28;20053;-20
2022/06/27 00:38:23;;;;;;;0.85;0.60;;;;;;;21.00;63.57;96506.44;10385818;28;20083;-21
2022/06/27 00:43:23;;;;;;;0.77;0.60;;;;;;;20.97;63.54;96512.38;10373797;28;20030;-20
2022/06/27 00:48:24;;;;;;;0.50;0.50;;;;;;;20.97;63.47;96532.75;10372665;28;20413;-20
2022/06/27 00:53:24;;;;;;;1.58;0.50;;;;;;;21.30;70.02;96531.47;10376745;28;20347;-20
2022/06/27 00:58:28;;;;;;;0.73;0.60;;;;;;;21.35;64.87;96507.63;10373454;28;20499;-20
2022/06/27 01:03:28;;;;;;;0.57;0.57;;;;;;;21.22;64.14;96554.47;10389656;28;20034;-21
2022/06/27 01:08:30;;;;;;;2.53;0.60;;;;;;;21.11;63.42;96561.44;10395955;28;20037;-20
2022/06/27 01:13:31;;;;;;;0.98;0.60;;;;;;;21.03;63.45;96563.22;10372570;28;20076;-20
2022/06/27 01:18:32;;;;;;;0.95;0.88;;;;;;;21.01;63.54;96554.78;10372277;28;20420;-22
2022/06/27 01:23:36;;;;;;;0.40;0.40;;;;;;;20.98;63.61;96564.16;10406286;28;20032;-21
2022/06/27 01:28:37;;;;;;;1.00;0.60;;;;;;;20.97;63.54;96565.84;10396758;28;20517;-21
2022/06/27 01:33:38;;;;;;;0.55;0.50;;;;;;;20.96;63.47;96546.34;10371257;28;20037;-21
2022/06/27 01:38:39;;;;;;;0.60;0.60;;;;;;;21.14;66.36;96545.28;10380863;28;20117;-19
2022/06/27 01:43:39;;;;;;;0.47;0.40;;;;;;;21.37;70.10;96533.91;10387035;28;20029;-21
2022/06/27 01:48:43;;;;;;;0.50;0.50;;;;;;;21.27;64.99;96536.59;10370836;28;20041;-21
2022/06/27 01:53:44;;;;;;;0.47;0.47;;;;;;;21.14;63.57;96527.47;10373348;28;20496;-21
2022/06/27 01:58:44;;;;;;;1.58;0.73;;;;;;;21.06;63.50;96522.44;10370413;28;20045;-21
2022/06/27 02:03:45;;;;;;;0.95;0.57;;;;;;;21.01;63.51;96497.91;10372686;28;20022;-20
2022/06/27 02:08:46;;;;;;;1.07;0.60;;;;;;;20.97;63.67;96507.31;10385745;28;20478;-19
2022/06/27 02:13:49;;;;;;;0.60;0.60;;;;;;;20.95;63.49;96514.13;10369079;28;20033;-20
2022/06/27 02:18:54;;;;;;;0.55;0.55;;;;;;;20.95;63.50;96508.19;10386545;28;20175;-23
2022/06/27 02:23:55;;;;;;;1.55;1.02;;;;;;;20.91;63.55;96512.50;10384447;28;20560;-21
2022/06/27 02:28:58;;;;;;;2.63;0.60;;;;;;;21.27;70.06;96499.25;10369065;28;20038;-20
2022/06/27 02:33:59;;;;;;;1.10;0.50;;;;;;;21.35;68.96;96504.22;10369061;28;20309;-21
2022/06/27 02:39:02;;;;;;;0.50;0.50;;;;;;;21.19;64.54;96493.44;10405079;28;20099;-22
2022/06/27 02:44:06;;;;;;;0.60;0.50;;;;;;;21.08;63.68;96500.38;10389638;28;20049;-21
2022/06/27 02:49:08;;;;;;;0.50;0.50;;;;;;;21.03;63.52;96502.13;10369121;28;20089;-21
2022/06/27 02:54:49;;;;;;;0.77;0.65;;;;;;;20.98;63.55;96497.97;10374637;28;20030;-20
2022/06/27 02:59:55;;;;;;;0.35;0.35;;;;;;;20.97;63.71;96497.13;10367686;28;20042;-21
2022/06/27 03:04:57;;;;;;;0.95;0.43;;;;;;;20.95;63.45;96491.22;10373163;28;20025;-21
2022/06/27 03:10:03;;;;;;;1.10;0.50;;;;;;;20.92;63.67;96483.63;10367592;28;20038;-20
2022/06/27 03:15:07;;;;;;;0.75;0.50;;;;;;;21.09;66.04;96457.94;10378492;28;20044;-21
2022/06/27 03:20:08;;;;;;;1.73;0.38;;;;;;;21.33;69.87;96440.59;10367461;28;20037;-21
2022/06/27 03:25:21;;;;;;;0.45;0.40;;;;;;;21.25;65.44;96428.84;10386232;28;20030;-21
2022/06/27 03:30:21;;;;;;;4.20;0.60;;;;;;;21.11;63.72;96418.88;10382628;28;20034;-20
2022/06/27 03:35:24;;;;;;;1.42;0.40;;;;;;;21.05;63.57;96418.13;10373600;28;20042;-22
2022/06/27 03:40:25;;;;;;;0.50;0.40;;;;;;;20.98;63.73;96419.06;10370859;28;20045;-20
2022/06/27 03:45:25;;;;;;;1.55;0.60;;;;;;;20.97;63.66;96420.75;10371821;28;20073;-20
2022/06/27 03:50:27;;;;;;;0.88;0.35;;;;;;;20.99;63.65;96423.28;10384590;28;20423;-21
2022/06/27 03:55:28;;;;;;;1.38;0.57;;;;;;;20.38;65.46;96419.88;10376825;28;20034;-20
2022/06/27 04:00:33;;;;;;;2.17;0.40;;;;;;;20.00;69.79;96424.50;10397046;28;20592;-20
2022/06/27 04:05:36;;;;;;;0.85;0.20;;;;;;;19.86;71.73;96416.16;10403596;28;20036;-21
2022/06/27 04:10:37;;;;;;;0.75;0.20;;;;;;;19.79;72.81;96434.03;10366468;28;20029;-21
2022/06/27 04:15:38;;;;;;;5.63;0.32;;;;;;;19.72;73.44;96437.47;10365817;28;20045;-22
2022/06/27 04:20:56;;;;;;;0.82;0.60;;;;;;;19.72;73.78;96445.09;10366856;28;20416;-21
2022/06/27 04:26:02;;;;;;;0.90;0.20;;;;;;;19.75;73.96;96458.63;10364590;28;20396;-21
2022/06/27 04:31:03;;;;;;;0.43;0.25;;;;;;;19.77;74.31;96476.41;10366582;28;20034;-21
2022/06/27 04:36:04;;;;;;;1.48;0.57;;;;;;;19.78;73.89;96478.06;10376186;28;20503;-21
2022/06/27 04:41:05;;;;;;;2.13;0.40;;;;;;;19.71;74.98;96507.78;10379349;28;20088;-21
2022/06/27 04:46:08;;;;;;;3.13;0.50;;;;;;;19.57;75.64;96519.72;10367722;28;20029;-20
2022/06/27 04:51:27;;;;;;;1.85;0.45;;;;;;;19.79;74.64;96535.66;10375387;28;20099;-22
2022/06/27 04:56:30;;;;;;;3.83;0.47;;;;;;;19.83;74.20;96538.16;10404157;28;20121;-21
2022/06/27 05:01:30;;;;;;;0.70;0.30;;;;;;;19.62;75.45;96556.09;10380274;28;20304;-21
2022/06/27 05:06:37;;;;;;;0.43;0.43;;;;;;;19.73;74.66;96551.78;10381387;28;20100;-22
2022/06/27 05:11:41;;;;;;;3.95;0.40;;;;;;;19.58;75.17;96571.38;10364494;28;20044;-21
2022/06/27 05:16:42;;;;;;;0.90;0.30;;;;;;;19.53;75.78;96573.09;10371450;28;20053;-22
2022/06/27 05:21:43;;;;;;;1.10;0.43;;;;;;;19.63;75.53;96574.72;10371883;28;20045;-21
2022/06/27 05:26:45;;;;;;;1.00;0.55;;;;;;;19.57;75.21;96559.50;10370909;28;20079;-23
2022/06/27 05:31:45;;;;;;;1.25;0.40;;;;;;;19.74;74.81;96567.84;10371254;28;20034;-22
2022/06/27 05:36:46;;;;;;;0.82;0.70;;;;;;;19.57;76.03;96574.75;10405060;28;20033;-22
2022/06/27 05:41:48;;;;;;;1.95;0.73;;;;;;;19.55;76.21;96592.56;10386120;28;20168;-24
2022/06/27 05:46:56;;;;;;;1.08;0.80;;;;;;;19.61;76.20;96601.81;10370368;28;20220;-22
2022/06/27 05:52:17;;;;;;;3.17;0.80;;;;;;;19.53;76.80;96616.25;10386400;28;20096;-22
2022/06/27 05:57:19;;;;;;;2.55;0.90;;;;;;;19.51;76.45;96636.56;10405468;28;20034;-21
2022/06/27 06:02:21;;;;;;;0.90;0.88;;;;;;;19.56;76.60;96639.94;10368110;28;20570;-21
2022/06/27 06:07:22;;;;;;;3.00;1.08;;;;;;;19.55;76.74;96606.94;10408842;28;20036;-22
2022/06/27 06:12:24;;;;;;;2.33;1.27;;;;;;;19.50;76.64;96578.19;10396582;28;20209;-22
2022/06/27 06:17:25;;;;;;;1.73;1.20;;;;;;;19.73;75.67;96551.78;10385577;28;20037;-21
2022/06/27 06:22:26;;;;;;;1.40;0.90;;;;;;;19.52;76.69;96573.94;10385700;28;20026;-22
2022/06/27 06:27:27;;;;;;;1.90;1.20;;;;;;;19.54;76.80;96579.84;10401758;28;20052;-23
2022/06/27 06:32:29;;;;;;;2.17;1.10;;;;;;;19.58;77.13;96606.94;10368752;28;20081;-22
2022/06/27 06:37:31;;;;;;;1.92;1.13;;;;;;;19.57;76.76;96640.78;10381489;28;20508;-23
2022/06/27 06:42:32;;;;;;;2.70;1.70;;;;;;;19.49;77.13;96665.38;10383334;28;20163;-23
2022/06/27 06:47:58;;;;;;;3.28;1.50;;;;;;;19.46;77.10;96673.00;10368670;28;20488;-21
2022/06/27 06:53:03;;;;;;;1.20;1.10;;;;;;;19.56;76.71;96669.56;10385403;28;20275;-22
2022/06/27 06:58:03;;;;;;;1.73;1.10;;;;;;;19.49;77.85;96690.78;10404715;28;20518;-23
2022/06/27 07:03:04;;;;;;;1.73;1.40;;;;;;;19.63;76.49;96677.16;10409224;28;20047;-21
2022/06/27 07:08:05;;;;;;;2.45;1.52;;;;;;;19.64;76.79;96667.81;10381591;28;20034;-23
2022/06/27 07:13:06;;;;;;;2.45;1.80;;;;;;;19.64;77.32;96672.91;10368554;28;20091;-22
2022/06/27 07:18:06;;;;;;;3.17;1.98;;;;;;;19.76;77.06;96677.94;10369044;28;20030;-23
2022/06/27 07:23:08;;;;;;;1.38;1.15;;;;;;;19.90;76.08;96693.94;10367587;28;20129;-22
2022/06/27 07:28:08;;;;;;;1.63;1.52;;;;;;;19.92;75.80;96715.94;10368664;28;20084;-22
2022/06/27 07:33:09;;;;;;;1.70;1.60;;;;;;;19.85;76.79;96713.44;10367461;28;20069;-22
2022/06/27 07:38:10;;;;;;;2.17;1.92;;;;;;;19.91;76.05;96719.34;10388360;28;20490;-22
2022/06/27 07:43:13;;;;;;;3.00;2.00;;;;;;;19.97;75.09;96705.75;10395157;28;20037;-22
2022/06/27 07:48:17;;;;;;;2.30;1.65;;;;;;;19.77;76.43;96705.03;10368079;28;20108;-22
2022/06/27 07:53:19;;;;;;;3.65;2.08;;;;;;;19.69;76.97;96701.69;10373671;28;20036;-22
2022/06/27 07:58:30;;;;;;;2.55;1.88;;;;;;;19.81;76.39;96716.84;10367549;28;20096;-22
2022/06/27 08:03:39;;;;;;;2.75;2.00;;;;;;;19.79;77.02;96724.50;10368633;28;20037;-22
2022/06/27 08:08:43;;;;;;;1.70;1.60;;;;;;;20.06;75.12;96703.19;10391272;28;20042;-22
2022/06/27 08:13:45;;;;;;;3.28;1.83;;;;;;;19.92;75.26;96670.19;10366172;28;20037;-22
2022/06/27 08:18:50;;;;;;;2.45;1.60;;;;;;;19.92;75.17;96656.66;10399724;28;20029;-23
2022/06/27 08:23:53;;;;;;;2.03;1.50;;;;;;;19.92;75.87;96679.53;10386119;28;20431;-21
2022/06/27 08:28:54;;;;;;;3.33;1.90;;;;;;;19.95;76.09;96694.75;10366729;28;20042;-23
2022/06/27 08:33:58;;;;;;;1.77;1.20;;;;;;;20.06;75.21;96690.47;10366256;28;20042;-22
2022/06/27 08:39:01;;;;;;;1.17;1.00;;;;;;;20.14;75.02;96681.09;10376156;28;20107;-24
2022/06/27 08:44:04;;;;;;;1.65;0.98;;;;;;;19.97;75.39;96682.88;10365959;28;20105;-22
2022/06/27 08:49:05;;;;;;;1.67;1.00;;;;;;;20.06;74.43;96682.84;10370396;28;20489;-22
2022/06/27 08:54:06;;;;;;;1.10;0.77;;;;;;;20.02;74.54;96687.06;10381234;28;20065;-22
2022/06/27 08:59:08;;;;;;;1.02;0.65;;;;;;;20.17;73.37;96709.06;10374329;28;20049;-21
2022/06/27 09:04:09;;;;;;;0.70;0.68;;;;;;;19.88;74.85;96728.66;10379547;28;20044;-22
2022/06/27 09:09:12;;;;;;;1.17;0.60;;;;;;;19.86;74.18;96745.63;10378120;28;20042;-22
2022/06/27 09:14:43;;;;;;;1.85;0.88;;;;;;;19.97;73.08;96754.88;10373282;28;20398;-21
2022/06/27 09:19:55;;;;;;;0.63;0.60;;;;;;;19.99;73.13;96775.19;10373453;28;20493;-22
2022/06/27 09:25:09;;;;;;;1.10;0.90;;;;;;;20.11;72.79;96775.19;10372608;28;20432;-22
2022/06/27 09:30:18;;;;;;;1.65;1.00;;;;;;;20.07;72.96;96788.72;10373225;28;20117;-22
2022/06/27 09:35:27;;;;;;;1.27;0.88;;;;;;;19.99;73.17;96787.91;10378193;28;20033;-23
2022/06/27 09:40:30;;;;;;;1.20;0.80;;;;;;;19.98;73.65;96801.47;10413710;28;20400;-22
2022/06/27 09:45:31;;;;;;;0.80;0.70;;;;;;;20.03;73.41;96807.38;10378641;28;20038;-23
2022/06/27 09:50:34;;;;;;;2.03;1.08;;;;;;;20.13;73.19;96793.78;10374450;28;20045;-22
2022/06/27 09:55:36;;;;;;;2.95;0.80;;;;;;;19.99;74.03;96806.53;10412208;28;20132;-22
2022/06/27 10:00:37;;;;;;;2.42;1.15;;;;;;;20.11;73.49;96805.69;10378908;28;20038;-22
2022/06/27 10:05:40;;;;;;;1.30;0.90;;;;;;;20.17;72.80;96813.28;10390069;28;20116;-22
2022/06/27 10:11:02;;;;;;;1.17;0.75;;;;;;;20.01;73.59;96816.72;10373623;28;20038;-22
2022/06/27 10:16:08;;;;;;;2.30;1.05;;;;;;;19.97;73.14;96809.94;10370442;28;20041;-24
2022/06/27 10:21:40;;;;;;;1.02;0.65;;;;;;;20.02;72.42;96818.41;10371489;28;20507;-22
2022/06/27 10:26:41;;;;;;;1.38;0.80;;;;;;;20.16;71.93;96799.72;10370402;28;20128;-22
2022/06/27 10:31:45;;;;;;;0.63;0.60;;;;;;;20.65;70.75;96818.91;10370867;28;20033;-21
2022/06/27 10:36:46;;;;;;;2.85;0.80;;;;;;;20.75;69.80;96815.44;10372878;28;20026;-22
2022/06/27 10:41:46;;;;;;;0.70;0.60;;;;;;;20.18;71.69;96820.88;10370413;28;20041;-22
2022/06/27 10:46:46;;;;;;;0.80;0.50;;;;;;;20.19;71.61;96831.91;10369795;28;20036;-22
2022/06/27 10:51:48;;;;;;;1.30;0.60;;;;;;;19.95;70.68;96822.66;10379748;28;20077;-22
2022/06/27 10:56:51;;;;;;;0.75;0.60;;;;;;;20.17;69.60;96816.66;10369310;28;20625;-21
2022/06/27 11:01:57;;;;;;;0.40;0.40;;;;;;;20.19;69.60;96816.66;10369321;28;20037;-22
2022/06/27 11:07:03;;;;;;;0.60;0.60;;;;;;;20.03;71.08;96815.00;10386528;28;20033;-22
2022/06/27 11:12:04;;;;;;;;;;;;;;;20.05;70.84;96818.41;10369004;28;20033;-22
2022/06/27 11:17:05;;;;;;;0.68;0.40;;;;;;;20.17;70.56;96823.44;10368950;28;19917;-22
2022/06/27 11:22:20;;;;;;;0.60;0.60;;;;;;;20.17;70.42;96828.53;10369278;28;20033;-22
2022/06/27 11:27:22;;;;;;;1.40;0.60;;;;;;;20.06;70.60;96835.34;10368444;28;20129;-22
2022/06/27 11:32:22;;;;;;;1.60;0.60;;;;;;;20.10;70.13;96832.78;10368070;28;20407;-22
2022/06/27 11:37:24;;;;;;;1.30;0.40;;;;;;;20.02;70.11;96828.56;10394121;28;20037;-22
2022/06/27 11:42:32;;;;;;;1.35;0.90;;;;;;;19.99;69.86;96831.97;10402352;28;20050;-22
2022/06/27 11:47:34;;;;;;;0.88;0.50;;;;;;;20.08;69.17;96839.56;10367874;28;20029;-22
2022/06/27 11:52:38;;;;;;;1.40;0.60;;;;;;;20.09;69.14;96837.88;10385753;28;20480;-21
2022/06/27 11:57:44;;;;;;;1.50;0.50;;;;;;;20.09;68.62;96825.19;10399836;28;20034;-22
2022/06/27 12:02:45;;;;;;;1.58;0.60;;;;;;;20.12;68.33;96830.25;10407136;28;20045;-22
2022/06/27 12:08:01;;;;;;;0.80;0.73;;;;;;;20.03;68.67;96820.09;10386160;28;20026;-22
2022/06/27 12:13:03;;;;;;;0.93;0.63;;;;;;;20.09;69.17;96830.25;10367066;28;20384;-23
2022/06/27 12:18:06;;;;;;;5.43;0.93;;;;;;;20.38;68.48;96829.25;10366966;28;20121;-22
2022/06/27 12:23:07;;;;;;;2.50;0.55;;;;;;;20.14;69.38;96824.31;10370766;28;20033;-23
2022/06/27 12:28:08;;;;;;;1.10;0.60;;;;;;;20.14;69.33;96811.59;10380725;28;20037;-21
2022/06/27 12:33:09;;;;;;;0.90;0.50;;;;;;;20.14;68.99;96823.44;10380102;28;20041;-24
2022/06/27 12:38:10;;;;;;;2.30;0.77;;;;;;;20.13;68.76;96816.66;10389330;28;20052;-22
2022/06/27 12:43:10;;;;;;;0.60;0.50;;;;;;;20.26;67.72;96808.16;10379257;28;20535;-22
2022/06/27 12:48:11;;;;;;;0.50;0.50;;;;;;;20.30;67.73;96814.88;10379746;28;20129;-22
2022/06/27 12:53:11;;;;;;;2.37;0.87;;;;;;;20.62;67.15;96814.69;10385372;28;20037;-21
2022/06/27 12:58:12;;;;;;;0.50;0.50;;;;;;;20.28;67.80;96807.25;10380459;28;20849;-21
2022/06/27 13:03:12;;;;;;;0.50;0.50;;;;;;;20.26;66.45;96813.22;10379376;28;20037;-22
2022/06/27 13:08:13;;;;;;;7.95;1.10;;;;;;;20.46;66.90;96804.63;10396662;28;20040;-21
2022/06/27 13:13:14;;;;;;;0.40;0.40;;;;;;;20.43;66.47;96818.19;10376473;28;20096;-21
2022/06/27 13:18:14;;;;;;;3.35;0.70;;;;;;;20.38;67.02;96817.38;10379586;28;20120;-22
2022/06/27 13:23:15;;;;;;;0.98;0.60;;;;;;;20.42;66.46;96816.53;10378196;28;20033;-22
2022/06/27 13:28:15;;;;;;;1.70;0.70;;;;;;;20.37;66.92;96821.63;10379119;28;20037;-22
2022/06/27 13:33:16;;;;;;;0.50;0.50;;;;;;;20.33;66.95;96822.53;10378614;28;20496;-22
2022/06/27 13:38:16;;;;;;;0.40;0.40;;;;;;;20.34;66.99;96831.84;10382788;28;20301;-21
2022/06/27 13:43:16;;;;;;;0.50;0.50;;;;;;;20.34;67.25;96834.38;10371425;28;20041;-22
2022/06/27 13:48:17;;;;;;;1.20;0.67;;;;;;;20.31;66.93;96842.00;10372113;28;20038;-21
2022/06/27 13:53:17;;;;;;;1.03;0.60;;;;;;;20.38;66.67;96845.34;10397962;28;20041;-21
2022/06/27 13:58:17;;;;;;;0.97;0.80;;;;;;;20.36;66.90;96845.38;10402778;28;20164;-22
2022/06/27 14:03:18;;;;;;;0.70;0.60;;;;;;;20.47;66.41;96840.19;10372452;28;20283;-21
2022/06/27 14:08:18;;;;;;;0.50;0.50;;;;;;;20.29;67.50;96843.72;10385211;28;20030;-22
2022/06/27 14:13:19;;;;;;;2.23;0.83;;;;;;;20.43;67.63;96830.91;10372763;28;20311;-20
2022/06/27 14:18:19;;;;;;;1.57;0.70;;;;;;;20.28;68.28;96839.47;10373796;28;20042;-22
2022/06/27 14:23:19;;;;;;;0.93;0.60;;;;;;;20.34;68.06;96853.00;10372019;28;20165;-21
2022/06/27 14:28:20;;;;;;;2.37;0.70;;;;;;;20.38;67.76;96837.72;10373117;28;20042;-21
2022/06/27 14:33:20;;;;;;;1.97;1.40;;;;;;;20.33;68.14;96850.50;10373211;28;20056;-21
2022/06/27 14:38:20;;;;;;;2.00;0.60;;;;;;;20.35;67.98;96858.94;10373273;28;20037;-22
2022/06/27 14:43:21;;;;;;;2.00;0.80;;;;;;;20.56;67.03;96849.50;10371057;28;20034;-21
2022/06/27 14:48:21;;;;;;;1.10;0.80;;;;;;;20.44;67.50;96854.63;10372456;28;20037;-21
2022/06/27 14:53:23;;;;;;;1.20;0.60;;;;;;;20.38;67.18;96864.00;10371021;28;20837;-22
2022/06/27 14:58:23;;;;;;;1.35;0.70;;;;;;;20.51;66.92;96852.06;10371595;28;20038;-23
2022/06/27 15:03:24;;;;;;;0.55;0.50;;;;;;;20.42;66.70;96856.34;10371446;28;20044;-21
2022/06/27 15:08:24;;;;;;;1.37;0.90;;;;;;;20.63;65.99;96859.63;10384347;28;20180;-22
2022/06/27 15:13:24;;;;;;;0.70;0.67;;;;;;;20.30;67.14;96876.78;10368355;28;20400;-21
2022/06/27 15:18:25;;;;;;;1.37;0.70;;;;;;;20.34;66.82;96872.50;10368661;28;20293;-22
2022/06/27 15:23:26;;;;;;;1.17;0.77;;;;;;;20.34;66.62;96857.25;10368235;28;20138;-22
2022/06/27 15:28:26;;;;;;;0.63;0.63;;;;;;;20.44;66.31;96870.75;10368092;28;20041;-22
2022/06/27 15:33:27;;;;;;;0.63;0.60;;;;;;;20.30;66.99;96870.81;10367871;28;20029;-23
2022/06/27 15:38:27;;;;;;;1.67;0.80;;;;;;;20.33;66.58;96886.09;10375170;28;20300;-22
2022/06/27 15:43:27;;;;;;;0.80;0.80;;;;;;;20.34;66.70;96882.69;10392862;28;20309;-22
2022/06/27 15:48:28;;;;;;;1.75;0.80;;;;;;;20.34;66.83;96890.31;10367929;28;20064;-22
2022/06/27 15:53:30;;;;;;;1.43;0.70;;;;;;;20.30;66.76;96901.34;10392975;28;20040;-21
2022/06/27 15:58:31;;;;;;;1.92;0.80;;;;;;;20.31;66.59;96905.56;10391641;28;20502;-23
2022/06/27 16:03:31;;;;;;;0.65;0.65;;;;;;;20.26;66.98;96913.22;10368140;28;20049;-22
2022/06/27 16:08:32;;;;;;;1.08;0.93;;;;;;;20.24;67.13;96921.69;10371788;28;20030;-21
2022/06/27 16:13:32;;;;;;;0.85;0.80;;;;;;;20.11;67.25;96940.41;10365850;28;20403;-22
2022/06/27 16:18:33;;;;;;;1.80;0.77;;;;;;;20.19;66.66;96931.88;10366982;28;20414;-22
2022/06/27 16:23:36;;;;;;;1.60;0.90;;;;;;;20.20;66.85;96930.19;10365514;28;20113;-21
2022/06/27 16:28:37;;;;;;;1.02;0.95;;;;;;;20.08;67.21;96961.56;10385577;28;20292;-22
2022/06/27 16:33:37;;;;;;;1.40;1.00;;;;;;;20.12;66.60;96959.88;10401411;28;20033;-22
2022/06/27 16:38:37;;;;;;;6.13;1.20;;;;;;;20.14;66.88;96981.06;10398186;28;20580;-22
2022/06/27 16:43:38;;;;;;;0.97;0.70;;;;;;;20.12;66.78;96968.38;10375133;28;20390;-22
2022/06/27 16:48:38;;;;;;;1.70;1.13;;;;;;;20.19;65.99;96943.75;10366520;28;20096;-22
2022/06/27 16:53:40;;;;;;;2.15;0.80;;;;;;;20.11;66.42;96940.41;10372731;28;20034;-20
2022/06/27 16:58:40;;;;;;;2.88;0.98;;;;;;;20.15;66.42;96942.06;10366153;28;20401;-22
2022/06/27 17:03:41;;;;;;;0.83;0.70;;;;;;;20.13;66.68;96946.31;10368088;28;20038;-22
2022/06/27 17:08:41;;;;;;;2.30;1.03;;;;;;;20.15;66.48;96942.06;10386428;28;20045;-22
2022/06/27 17:13:43;;;;;;;2.65;0.80;;;;;;;20.13;66.60;96974.28;10372780;28;20037;-22
2022/06/27 17:18:43;;;;;;;1.65;1.00;;;;;;;20.14;66.35;96989.53;10373690;28;20477;-22
2022/06/27 17:23:44;;;;;;;1.30;1.13;;;;;;;20.16;66.21;96981.88;10372203;28;20038;-22
2022/06/27 17:28:44;;;;;;;2.30;0.93;;;;;;;20.23;66.11;96971.72;10372561;28;20042;-22
2022/06/27 17:33:44;;;;;;;1.10;0.90;;;;;;;20.20;66.51;96993.75;10372397;28;20037;-22
2022/06/27 17:38:45;;;;;;;1.43;1.13;;;;;;;20.17;66.75;97001.41;10406660;28;20428;-22
2022/06/27 17:43:45;;;;;;;1.63;0.77;;;;;;;20.23;66.91;97009.00;10390042;28;20045;-21
2022/06/27 17:48:46;;;;;;;2.33;1.10;;;;;;;20.21;66.89;97020.88;10391250;28;20029;-22
2022/06/27 17:53:46;;;;;;;2.60;1.00;;;;;;;20.23;66.61;96991.19;10393265;28;20033;-19
2022/06/27 17:58:46;;;;;;;2.17;0.90;;;;;;;20.28;66.73;96999.66;10369945;28;20041;-22
2022/06/27 18:03:47;;;;;;;1.43;1.07;;;;;;;20.25;66.99;96994.59;10373850;28;20025;-22
2022/06/27 18:08:48;;;;;;;2.08;1.10;;;;;;;20.21;67.15;97033.56;10379120;28;20045;-22
2022/06/27 18:13:48;;;;;;;1.02;0.80;;;;;;;20.27;67.37;97031.03;10370613;28;20091;-22
2022/06/27 18:18:49;;;;;;;1.43;0.80;;;;;;;20.23;67.55;97032.72;10370951;28;20041;-21
2022/06/27 18:23:50;;;;;;;1.67;0.90;;;;;;;20.21;67.79;97034.44;10389978;28;20284;-22
2022/06/27 18:28:50;;;;;;;1.65;1.10;;;;;;;20.21;68.15;97041.22;10393163;28;20044;-21
2022/06/27 18:33:50;;;;;;;2.40;0.70;;;;;;;20.16;68.18;97064.09;10369999;28;20034;-22
2022/06/27 18:38:54;;;;;;;0.90;0.90;;;;;;;20.19;68.02;97065.78;10380894;28;20069;-22
2022/06/27 18:43:55;;;;;;;2.25;0.80;;;;;;;20.19;68.20;97053.91;10395035;28;20035;-23
2022/06/27 18:48:56;;;;;;;1.48;1.05;;;;;;;20.14;68.50;97068.34;10442776;28;20036;-22
2022/06/27 18:53:57;;;;;;;0.98;0.70;;;;;;;20.10;69.09;97075.97;10413125;28;20460;-22
2022/06/27 18:58:57;;;;;;;1.00;0.90;;;;;;;20.09;68.81;97080.19;10390944;28;20084;-22
2022/06/27 19:03:58;;;;;;;3.00;1.20;;;;;;;20.07;69.23;97065.78;10373240;28;20189;-22
2022/06/27 19:08:58;;;;;;;1.48;0.93;;;;;;;20.09;69.05;97052.22;10375582;28;20467;-22
2022/06/27 19:13:59;;;;;;;3.07;1.00;;;;;;;20.06;69.40;97043.75;10368382;28;20058;-22
2022/06/27 19:19:00;;;;;;;2.03;0.90;;;;;;;20.07;69.50;97037.81;10368954;28;20110;-22
2022/06/27 19:24:00;;;;;;;2.70;0.95;;;;;;;19.98;70.39;97012.38;10368409;28;20447;-21
2022/06/27 19:29:01;;;;;;;1.20;0.98;;;;;;;19.97;70.82;97010.69;10368558;28;20049;-23
2022/06/27 19:34:01;;;;;;;2.10;1.00;;;;;;;19.81;72.20;97039.50;10392492;28;20439;-21
2022/06/27 19:39:02;;;;;;;1.30;1.07;;;;;;;19.77;72.15;97056.44;10435578;28;20033;-22
2022/06/27 19:44:03;;;;;;;1.13;1.00;;;;;;;19.72;72.66;97058.16;10409124;28;20034;-22
2022/06/27 19:49:04;;;;;;;2.67;1.27;;;;;;;19.68;72.57;97066.59;10367968;28;20048;-22
2022/06/27 19:54:04;;;;;;;1.88;1.00;;;;;;;19.61;72.99;97075.06;10376026;28;20057;-22
2022/06/27 19:59:05;;;;;;;2.83;1.00;;;;;;;19.63;72.63;97108.09;10367681;28;20038;-22
2022/06/27 20:04:06;;;;;;;0.80;0.80;;;;;;;19.59;72.50;97124.19;10372607;28;20530;-22
2022/06/27 20:09:06;;;;;;;1.02;0.93;;;;;;;19.65;72.11;97136.88;10368986;28;20068;-23
2022/06/27 20:14:07;;;;;;;2.95;0.98;;;;;;;19.53;72.26;97134.31;10366789;28;20045;-22
2022/06/27 20:19:09;;;;;;;0.83;0.70;;;;;;;19.60;72.41;97148.75;10367330;28;20041;-23
2022/06/27 20:24:10;;;;;;;1.10;0.82;;;;;;;19.55;72.33;97150.41;10366684;28;20070;-22
2022/06/27 20:29:11;;;;;;;1.88;0.82;;;;;;;19.63;71.88;97149.59;10366497;28;20125;-22
2022/06/27 20:34:11;;;;;;;2.53;0.90;;;;;;;19.60;72.48;97148.75;10396481;28;20037;-22
2022/06/27 20:39:12;;;;;;;3.25;1.00;;;;;;;19.74;72.59;97147.91;10376624;28;20042;-22
2022/06/27 20:44:12;;;;;;;2.22;0.90;;;;;;;19.63;73.70;97153.81;10368282;28;20447;-22
2022/06/27 20:49:13;;;;;;;2.60;1.30;;;;;;;19.68;73.56;97147.06;10376899;28;20445;-22
2022/06/27 20:54:13;;;;;;;2.40;1.00;;;;;;;19.63;73.49;97139.44;10389934;28;20038;-21
2022/06/27 20:59:14;;;;;;;2.10;1.03;;;;;;;19.66;73.52;97121.66;10374090;28;20412;-22
2022/06/27 21:04:15;;;;;;;1.20;0.93;;;;;;;19.68;73.30;97154.69;10380682;28;20037;-23
2022/06/27 21:14:35;;;;;;;2.17;1.60;;;;;;;19.62;73.54;97149.59;10372832;28;20042;-23
2022/06/27 21:19:37;;;;;;;2.70;1.13;;;;;;;19.56;73.81;97136.84;10373277;28;20030;-23
2022/06/27 21:24:37;;;;;;;2.70;1.15;;;;;;;19.54;73.66;97141.09;10373276;28;20036;-22
2022/06/27 21:29:37;;;;;;;1.80;1.00;;;;;;;19.50;74.02;97137.69;10371805;28;20044;-24
2022/06/27 21:34:38;;;;;;;1.88;1.00;;;;;;;19.43;74.05;97148.69;10371985;28;20471;-21
2022/06/27 21:39:38;;;;;;;3.23;1.30;;;;;;;19.44;73.88;97164.78;10386779;28;20060;-22
2022/06/27 21:44:39;;;;;;;3.78;0.80;;;;;;;19.44;73.88;97162.25;10371327;28;20355;-22
2022/06/27 21:49:39;;;;;;;2.17;0.60;;;;;;;19.44;73.86;97145.28;10372968;28;20530;-22
2022/06/27 21:54:40;;;;;;;2.23;0.80;;;;;;;19.45;73.86;97141.06;10380978;28;20292;-22
2022/06/27 21:59:40;;;;;;;4.63;1.10;;;;;;;19.38;73.63;97126.66;10371993;28;20042;-22
2022/06/27 22:04:40;;;;;;;2.37;1.00;;;;;;;19.41;73.44;97131.75;10380588;28;20049;-22
2022/06/27 22:09:45;;;;;;;2.50;0.90;;;;;;;19.43;73.12;97135.16;10372021;28;20280;-22
2022/06/27 22:14:45;;;;;;;0.70;0.70;;;;;;;19.38;73.17;97149.50;10371341;28;20408;-22
2022/06/27 22:19:46;;;;;;;2.33;1.15;;;;;;;19.36;72.83;97143.59;10371281;28;20045;-22
2022/06/27 22:24:47;;;;;;;1.90;1.10;;;;;;;19.36;72.95;97143.59;10370648;28;20072;-23
2022/06/27 22:29:48;;;;;;;3.95;1.25;;;;;;;19.35;72.92;97146.97;10371308;28;20455;-23
2022/06/27 22:34:49;;;;;;;3.17;1.15;;;;;;;19.30;72.93;97141.03;10372080;28;20049;-22
2022/06/27 22:39:49;;;;;;;1.02;0.90;;;;;;;19.28;72.90;97150.31;10382922;28;20038;-22
2022/06/27 22:44:49;;;;;;;3.07;0.87;;;;;;;19.33;72.95;97144.41;10369621;28;20060;-22
2022/06/27 22:49:50;;;;;;;4.27;0.80;;;;;;;19.33;72.43;97134.25;10370285;28;20037;-24
2022/06/27 22:54:50;;;;;;;2.50;0.77;;;;;;;19.27;72.46;97158.78;10406703;28;20287;-23
2022/06/27 22:59:50;;;;;;;1.30;0.97;;;;;;;19.23;72.33;97162.13;10384384;28;20767;-23
2022/06/27 23:04:51;;;;;;;1.33;0.80;;;;;;;19.22;72.20;97157.91;10381370;28;20472;-22
2022/06/27 23:09:51;;;;;;;1.10;0.80;;;;;;;19.18;72.08;97161.25;10392930;28;20292;-23
2022/06/27 23:14:52;;;;;;;4.43;1.10;;;;;;;19.21;71.39;97169.78;10381168;28;20048;-24
2022/06/27 23:19:54;;;;;;;2.47;0.97;;;;;;;19.17;71.71;97169.72;10369513;28;20304;-24
2022/06/27 23:24:55;;;;;;;1.17;1.00;;;;;;;19.16;71.60;97185.78;10368440;28;20041;-22
2022/06/27 23:29:55;;;;;;;5.30;1.02;;;;;;;19.10;72.18;97186.59;10368732;28;20045;-24